map of GUF home
GUF - Airport
Location
City:  Gulf Shores, Alabama, United States
Name:Jack Edwards Airport
ICAO:KJKA
IATA:GUF
FAA LID:JKA

Details
Type:Airport (Airfield)
Use:Public/Civil
Latitude:3017'23"N (30.289639)
Longitude:8740'18"W (-87.671777)
Datum:WGS 1984
Elevation:17 ft (5 m)
Variation:2.49W (WMM2015 magnetic declination)
-0.11 annual change
Runways:2
Longest:6962 × 100 ft (2122 × 30.5 m), paved

Time
Time Zone:UTC-6 (DST-5)
Local Time:

Weather
METAR:KJKA 201915Z AUTO 13010G21KT 10SM BKN010 OVC014 25/21 A3024 RMK AO2 T02480211

Related Locations
Nearby:
Farthest:CCK: 11152 mi / 17948 km
West Island (Pulau Panjang) [Cocos (Keeling) Islands], CC

Find:

   beyond  
but within

Other Information
Maps:
NOTAMs:
Links:
Sources:

  
flag of United States
flag of Alabama
  

Sectional Chart

Flight Planning
at skyvector.com

Satellite Image

Google Maps Satellite view

 

Copyright © 2004-2018 Karl L. Swartz. All rights reserved.
The Great Circle Mapper name and logo are trademarks of the Great Circle Mapper.
All other trademarks mentioned herein belong to their respective owners.
Please see credits for attibutions and further copyright information.

  Follow gcmap on Facebook Follow gcmap on Twitter Follow gcmap on Google+ GCmap on LinkedIn

hCard Microformat

Geo Microformat